Time;durP1;ratioP1;P1;durP2;ratioP2;P2;SDS_P1;SDS_P2;PMS_P1;PMS_P2;Temp;Humidity;BMP_temperature;BMP_pressure;BME280_temperature;BME280_humidity;BME280_pressure;Samples;Min_cycle;Max_cycle;Signal;HPM_P1;HPM_P2
2023/10/26 00:02:07;;;;;;;4.80;1.50;;;9.70;99.90;;;;;;5065427;28;20441;-59
2023/10/26 00:04:33;;;;;;;3.20;1.30;;;9.70;99.90;;;;;;5066232;28;20810;-58
2023/10/26 00:07:00;;;;;;;4.30;1.50;;;9.70;99.90;;;;;;5063392;28;20293;-59
2023/10/26 00:09:26;;;;;;;1.60;1.17;;;9.70;99.90;;;;;;5068009;28;20221;-57
2023/10/26 00:11:52;;;;;;;1.40;1.30;;;9.80;99.90;;;;;;5062653;28;21024;-59
2023/10/26 00:14:17;;;;;;;2.00;1.37;;;9.80;99.90;;;;;;5066401;28;20443;-58
2023/10/26 00:16:43;;;;;;;2.30;1.20;;;9.80;99.90;;;;;;5064151;28;20232;-59
2023/10/26 00:19:09;;;;;;;2.00;1.30;;;9.80;99.90;;;;;;5063301;28;20177;-59
2023/10/26 00:21:34;;;;;;;1.53;1.30;;;9.80;99.90;;;;;;5056344;28;20202;-58
2023/10/26 00:24:00;;;;;;;1.40;1.23;;;9.80;99.90;;;;;;5066159;28;20275;-59
2023/10/26 00:26:25;;;;;;;11.20;2.00;;;9.90;99.90;;;;;;5065599;28;20182;-59
2023/10/26 00:28:51;;;;;;;3.23;1.50;;;9.90;99.90;;;;;;5065218;28;20691;-60
2023/10/26 00:31:17;;;;;;;1.73;1.63;;;9.90;99.90;;;;;;5056769;28;20203;-59
2023/10/26 00:33:42;;;;;;;1.83;1.50;;;9.90;99.90;;;;;;5057352;28;20676;-59
2023/10/26 00:36:08;;;;;;;4.40;1.50;;;9.90;99.90;;;;;;5061722;28;20175;-59
2023/10/26 00:38:34;;;;;;;2.40;1.70;;;9.90;99.90;;;;;;5068688;28;20266;-59
2023/10/26 00:41:00;;;;;;;1.40;1.30;;;9.90;99.90;;;;;;5063857;28;20203;-59
2023/10/26 00:43:25;;;;;;;4.33;2.93;;;9.90;99.90;;;;;;5067607;28;20477;-59
2023/10/26 00:45:52;;;;;;;2.53;2.33;;;9.90;99.90;;;;;;5064979;28;20736;-59
2023/10/26 00:48:19;;;;;;;2.50;2.07;;;9.90;99.90;;;;;;5066286;28;20210;-58
2023/10/26 00:50:45;;;;;;;1.40;1.30;;;10.00;99.90;;;;;;5061106;28;20468;-60
2023/10/26 00:53:13;;;;;;;2.57;1.67;;;9.90;99.90;;;;;;5059691;28;20429;-59
2023/10/26 00:55:39;;;;;;;4.50;1.53;;;9.90;99.90;;;;;;5066376;28;20483;-59
2023/10/26 00:58:06;;;;;;;1.53;1.43;;;9.90;99.90;;;;;;5066244;28;20943;-59
2023/10/26 01:00:32;;;;;;;1.70;1.60;;;9.90;99.90;;;;;;5063567;28;20470;-60
2023/10/26 01:02:58;;;;;;;1.60;1.40;;;9.90;99.90;;;;;;5067359;28;20897;-58
2023/10/26 01:05:23;;;;;;;2.67;1.30;;;9.90;99.90;;;;;;5061170;28;20201;-59
2023/10/26 01:07:49;;;;;;;2.50;1.77;;;9.90;99.90;;;;;;5066603;28;20551;-59
2023/10/26 01:10:15;;;;;;;2.47;1.50;;;9.90;99.90;;;;;;5065102;28;20585;-59
2023/10/26 01:12:40;;;;;;;3.90;1.57;;;9.90;99.90;;;;;;5066599;28;20175;-58
2023/10/26 01:15:07;;;;;;;3.43;1.40;;;9.80;99.90;;;;;;5058813;28;20201;-59
2023/10/26 01:17:35;;;;;;;4.50;1.53;;;9.80;99.90;;;;;;5066107;28;20174;-60
2023/10/26 01:20:00;;;;;;;1.70;1.60;;;9.80;99.90;;;;;;5050719;28;20816;-59
2023/10/26 01:22:30;;;;;;;1.63;1.50;;;9.70;99.90;;;;;;5063097;28;20995;-59
2023/10/26 01:24:55;;;;;;;4.70;1.60;;;9.70;99.90;;;;;;5062928;28;20206;-59
2023/10/26 01:27:21;;;;;;;2.30;1.70;;;9.70;99.90;;;;;;5065171;28;20873;-59
2023/10/26 01:29:47;;;;;;;1.50;1.37;;;9.60;99.90;;;;;;5062799;28;20314;-58
2023/10/26 01:32:12;;;;;;;2.67;1.30;;;9.50;99.90;;;;;;5065964;28;20167;-59
2023/10/26 01:34:40;;;;;;;3.33;1.60;;;9.50;99.90;;;;;;5062410;28;20190;-58
2023/10/26 01:37:06;;;;;;;6.13;1.40;;;9.40;99.90;;;;;;5066149;28;20616;-60
2023/10/26 01:39:32;;;;;;;1.50;1.40;;;9.40;99.90;;;;;;5061439;28;20532;-59
2023/10/26 01:41:58;;;;;;;5.40;1.57;;;9.40;99.90;;;;;;5061855;28;20463;-60
2023/10/26 01:44:23;;;;;;;1.37;1.27;;;9.30;99.90;;;;;;5066708;28;20444;-59
2023/10/26 01:46:49;;;;;;;3.80;1.33;;;9.30;99.90;;;;;;5062738;28;20266;-58
2023/10/26 01:49:15;;;;;;;2.80;1.50;;;9.30;99.90;;;;;;5065032;28;20718;-59
2023/10/26 01:51:40;;;;;;;1.80;1.23;;;9.20;99.90;;;;;;5063159;28;20198;-59
2023/10/26 01:54:06;;;;;;;1.30;1.20;;;9.20;99.90;;;;;;5068041;28;20177;-59
2023/10/26 01:56:31;;;;;;;1.50;1.17;;;9.20;99.90;;;;;;5066733;28;20178;-58
2023/10/26 01:58:57;;;;;;;4.10;1.30;;;9.20;99.90;;;;;;5065597;28;20216;-59
2023/10/26 02:01:24;;;;;;;1.10;1.10;;;9.20;99.90;;;;;;5062609;28;20197;-59
2023/10/26 02:03:50;;;;;;;2.83;1.57;;;9.10;99.90;;;;;;5057630;28;20452;-58
2023/10/26 02:06:15;;;;;;;5.43;1.40;;;9.20;99.90;;;;;;5056997;28;20520;-59
2023/10/26 02:08:41;;;;;;;1.50;1.40;;;9.10;99.90;;;;;;5060068;28;20582;-59
2023/10/26 02:11:07;;;;;;;3.87;1.20;;;9.10;99.90;;;;;;5066407;28;20198;-59
2023/10/26 02:13:35;;;;;;;5.97;1.40;;;9.10;99.90;;;;;;5066524;28;20174;-59
2023/10/26 02:16:01;;;;;;;2.80;1.10;;;9.10;99.90;;;;;;5060180;28;20454;-60
2023/10/26 02:18:28;;;;;;;3.20;1.30;;;9.10;99.90;;;;;;5065555;28;20447;-58
2023/10/26 02:20:54;;;;;;;2.50;1.10;;;9.10;99.90;;;;;;5062932;28;20919;-59
2023/10/26 02:23:21;;;;;;;3.33;1.40;;;9.10;99.90;;;;;;5054113;28;20445;-61
2023/10/26 02:25:47;;;;;;;1.77;1.47;;;9.10;99.90;;;;;;5060810;28;20167;-58
2023/10/26 02:28:15;;;;;;;3.20;1.30;;;9.00;99.90;;;;;;5058507;28;20424;-59
2023/10/26 02:30:44;;;;;;;2.97;1.10;;;9.00;99.90;;;;;;5063843;28;20210;-60
2023/10/26 02:33:10;;;;;;;1.60;1.30;;;9.00;99.90;;;;;;5065720;28;21158;-59
2023/10/26 02:35:38;;;;;;;5.60;1.57;;;9.00;99.90;;;;;;5061661;28;20432;-59
2023/10/26 02:38:04;;;;;;;2.47;2.27;;;9.00;99.90;;;;;;5062037;28;20171;-58
2023/10/26 02:40:29;;;;;;;1.30;1.20;;;8.90;99.90;;;;;;5064488;28;20824;-59
2023/10/26 02:42:55;;;;;;;2.83;1.30;;;8.90;99.90;;;;;;5067378;28;20232;-59
2023/10/26 02:45:21;;;;;;;2.10;1.30;;;8.90;99.90;;;;;;5059673;28;20175;-59
2023/10/26 02:47:46;;;;;;;1.67;1.57;;;8.90;99.90;;;;;;5067318;28;20243;-58
2023/10/26 02:50:12;;;;;;;3.60;1.63;;;8.90;99.90;;;;;;5057480;28;20284;-60
2023/10/26 02:52:37;;;;;;;1.60;1.30;;;8.90;99.90;;;;;;5064248;28;20231;-59
2023/10/26 02:55:05;;;;;;;2.37;1.30;;;8.90;99.90;;;;;;5051162;28;20727;-59
2023/10/26 02:57:30;;;;;;;4.40;1.50;;;8.90;99.90;;;;;;5053778;28;20178;-59
2023/10/26 02:59:56;;;;;;;8.43;1.67;;;8.90;99.90;;;;;;5066025;28;20444;-60
2023/10/26 03:02:21;;;;;;;1.60;1.50;;;8.90;99.90;;;;;;5064879;28;20566;-60
2023/10/26 03:04:47;;;;;;;1.43;1.33;;;8.90;99.90;;;;;;5062643;28;20182;-58
2023/10/26 03:07:20;;;;;;;2.10;1.90;;;8.90;99.90;;;;;;5061487;28;20584;-59
2023/10/26 03:09:46;;;;;;;2.20;1.50;;;8.90;99.90;;;;;;5066109;28;20209;-59
2023/10/26 03:12:11;;;;;;;2.37;1.37;;;8.90;99.90;;;;;;5063412;28;20429;-58
2023/10/26 03:14:37;;;;;;;1.80;1.40;;;8.90;99.90;;;;;;5066544;28;20247;-59
2023/10/26 03:17:03;;;;;;;1.37;1.27;;;8.90;99.90;;;;;;5062061;28;20174;-60
2023/10/26 03:19:28;;;;;;;2.43;1.47;;;8.90;99.90;;;;;;5061776;28;20182;-58
2023/10/26 03:21:54;;;;;;;4.40;1.43;;;9.00;99.90;;;;;;5059738;28;20245;-59
2023/10/26 03:24:19;;;;;;;1.13;1.13;;;9.00;99.90;;;;;;5066532;28;20217;-59
2023/10/26 03:26:45;;;;;;;3.00;1.27;;;9.00;99.90;;;;;;5064238;28;20190;-60
2023/10/26 03:29:10;;;;;;;1.10;1.10;;;9.00;99.90;;;;;;5062644;28;20260;-59
2023/10/26 03:31:36;;;;;;;1.50;1.40;;;9.00;99.90;;;;;;5055212;28;20583;-59
2023/10/26 03:34:02;;;;;;;1.63;1.30;;;9.00;99.90;;;;;;5060516;28;20175;-58
2023/10/26 03:36:28;;;;;;;4.13;1.60;;;9.00;99.90;;;;;;5063995;28;20665;-58
2023/10/26 03:38:53;;;;;;;4.20;1.50;;;9.10;99.90;;;;;;5059153;28;20205;-59
2023/10/26 03:41:19;;;;;;;2.47;1.37;;;9.10;99.90;;;;;;5064082;28;20688;-59
2023/10/26 03:43:45;;;;;;;2.37;1.47;;;9.10;99.90;;;;;;5066677;28;20219;-59
2023/10/26 03:46:10;;;;;;;1.50;1.40;;;9.10;99.90;;;;;;5061096;28;20911;-59
2023/10/26 03:48:36;;;;;;;5.37;2.73;;;9.10;99.90;;;;;;5062088;28;20189;-58
2023/10/26 03:51:02;;;;;;;1.90;1.70;;;9.10;99.90;;;;;;5062150;28;20206;-59
2023/10/26 03:53:28;;;;;;;2.50;1.70;;;9.20;99.90;;;;;;5057737;28;20249;-57
2023/10/26 03:55:55;;;;;;;1.97;1.87;;;9.20;99.90;;;;;;5060409;28;20556;-59
2023/10/26 03:58:21;;;;;;;3.87;1.80;;;9.20;99.90;;;;;;5064932;28;21072;-58
2023/10/26 04:00:47;;;;;;;4.63;1.93;;;9.20;99.90;;;;;;5058767;28;20528;-57
2023/10/26 04:03:13;;;;;;;5.43;1.80;;;9.20;99.90;;;;;;5058265;28;20175;-58
2023/10/26 04:05:39;;;;;;;1.53;1.20;;;9.20;99.90;;;;;;5061980;28;20463;-57
2023/10/26 04:08:06;;;;;;;2.53;1.50;;;9.20;99.90;;;;;;5061928;28;20445;-59
2023/10/26 04:10:32;;;;;;;2.40;1.67;;;9.20;99.90;;;;;;5055620;28;20218;-59
2023/10/26 04:12:58;;;;;;;2.53;2.33;;;9.20;99.90;;;;;;5048534;28;20487;-60
2023/10/26 04:15:23;;;;;;;5.10;2.40;;;9.30;99.90;;;;;;5059688;28;20433;-58
2023/10/26 04:17:50;;;;;;;6.67;1.60;;;9.30;99.90;;;;;;5053793;28;20181;-58
2023/10/26 04:20:15;;;;;;;4.13;1.40;;;9.30;99.90;;;;;;5058960;28;20201;-59
2023/10/26 04:22:41;;;;;;;1.70;1.60;;;9.30;99.90;;;;;;5052064;28;20432;-61
2023/10/26 04:25:07;;;;;;;1.80;1.63;;;9.30;99.90;;;;;;5057182;28;20201;-61
2023/10/26 04:27:33;;;;;;;1.87;1.53;;;9.30;99.90;;;;;;5060376;28;20885;-59
2023/10/26 04:29:59;;;;;;;2.30;2.00;;;9.30;99.90;;;;;;5067988;28;20198;-60
2023/10/26 04:32:24;;;;;;;2.53;1.70;;;9.40;99.90;;;;;;5059766;28;21026;-60
2023/10/26 04:34:50;;;;;;;5.10;1.70;;;9.40;99.90;;;;;;5060257;28;20257;-60
2023/10/26 04:37:16;;;;;;;2.87;1.80;;;9.40;99.90;;;;;;5055492;28;20183;-59
2023/10/26 04:39:43;;;;;;;2.30;1.67;;;9.40;99.90;;;;;;5065439;28;21158;-59
2023/10/26 04:42:10;;;;;;;2.23;1.80;;;9.40;99.90;;;;;;5066910;28;20978;-60
2023/10/26 04:44:35;;;;;;;4.30;2.10;;;9.40;99.90;;;;;;5058247;28;20433;-60
2023/10/26 04:47:01;;;;;;;1.97;1.77;;;9.40;99.90;;;;;;5058228;28;20447;-59
2023/10/26 04:49:27;;;;;;;3.83;1.80;;;9.40;99.90;;;;;;5064889;28;20175;-59
2023/10/26 04:51:53;;;;;;;2.10;1.90;;;9.40;99.90;;;;;;5057796;28;20206;-59
2023/10/26 04:54:18;;;;;;;7.10;2.20;;;9.40;99.90;;;;;;5060532;28;20920;-59
2023/10/26 04:56:44;;;;;;;3.33;2.37;;;9.40;99.90;;;;;;5065561;28;20200;-59
2023/10/26 04:59:09;;;;;;;1.87;1.70;;;9.40;99.90;;;;;;5064763;28;20178;-60
2023/10/26 05:01:35;;;;;;;6.00;1.73;;;9.40;99.90;;;;;;5060547;28;20200;-60
2023/10/26 05:04:01;;;;;;;3.10;2.00;;;9.40;99.90;;;;;;5063826;28;20170;-59
2023/10/26 05:06:26;;;;;;;5.33;2.20;;;9.40;99.90;;;;;;5061266;28;20567;-60
2023/10/26 05:08:52;;;;;;;3.73;2.97;;;9.50;99.90;;;;;;5060763;28;20247;-59
2023/10/26 05:11:19;;;;;;;4.80;3.20;;;9.50;99.90;;;;;;5064853;28;20212;-59
2023/10/26 05:13:44;;;;;;;5.73;4.43;;;9.50;99.90;;;;;;5062912;28;20664;-60
2023/10/26 05:16:10;;;;;;;5.93;4.30;;;9.50;99.90;;;;;;5068431;28;20417;-59
2023/10/26 05:18:37;;;;;;;5.20;4.00;;;9.50;99.90;;;;;;5062552;28;20183;-60
2023/10/26 05:21:02;;;;;;;6.03;4.30;;;9.50;99.90;;;;;;5066271;28;20459;-59
2023/10/26 05:23:28;;;;;;;3.90;3.50;;;9.50;99.90;;;;;;5065273;28;20506;-57
2023/10/26 05:25:53;;;;;;;5.63;3.80;;;9.50;99.90;;;;;;5061288;28;20258;-59
2023/10/26 05:28:19;;;;;;;4.50;3.80;;;9.50;99.90;;;;;;5059344;28;20175;-60
2023/10/26 05:30:45;;;;;;;6.33;4.20;;;9.50;99.90;;;;;;5056460;28;20199;-60
2023/10/26 05:33:10;;;;;;;7.30;3.90;;;9.50;99.90;;;;;;5060150;28;20587;-59
2023/10/26 05:35:36;;;;;;;4.27;3.60;;;9.50;99.90;;;;;;5058079;28;20626;-59
2023/10/26 05:38:03;;;;;;;3.93;3.13;;;9.50;99.90;;;;;;5057280;28;20593;-58
2023/10/26 05:40:30;;;;;;;3.70;2.80;;;9.50;99.90;;;;;;5054142;28;20209;-59
2023/10/26 05:42:55;;;;;;;4.13;2.70;;;9.50;99.90;;;;;;5066887;28;20420;-60
2023/10/26 05:45:21;;;;;;;4.43;2.73;;;9.50;99.90;;;;;;5065560;28;21037;-60
2023/10/26 05:47:53;;;;;;;6.97;2.57;;;9.60;99.90;;;;;;5063190;28;20191;-59
2023/10/26 05:50:20;;;;;;;3.40;2.40;;;9.60;99.90;;;;;;5059257;28;20521;-58
2023/10/26 05:52:45;;;;;;;5.20;3.00;;;9.60;99.90;;;;;;5062513;28;20433;-59
2023/10/26 05:55:11;;;;;;;4.30;3.20;;;9.60;99.90;;;;;;5058192;28;20436;-59
2023/10/26 05:57:37;;;;;;;2.73;2.53;;;9.60;99.90;;;;;;5063778;28;20269;-60
2023/10/26 06:00:06;;;;;;;4.63;2.67;;;9.60;99.90;;;;;;5057277;28;20985;-59
2023/10/26 06:02:32;;;;;;;2.50;2.30;;;9.60;99.90;;;;;;5066476;28;20170;-61
2023/10/26 06:04:58;;;;;;;2.50;2.30;;;9.60;99.90;;;;;;5060956;28;20440;-61
2023/10/26 06:07:24;;;;;;;4.10;2.73;;;9.60;99.90;;;;;;5063603;28;20432;-59
2023/10/26 06:09:50;;;;;;;3.67;2.73;;;9.60;99.90;;;;;;5067221;28;20213;-58
2023/10/26 06:12:16;;;;;;;7.53;2.53;;;9.60;99.90;;;;;;5067442;28;20217;-59
2023/10/26 06:14:41;;;;;;;7.43;3.20;;;9.60;99.90;;;;;;5059946;28;20433;-60
2023/10/26 06:17:07;;;;;;;5.40;2.73;;;9.60;99.90;;;;;;5065685;28;20424;-59
2023/10/26 06:19:34;;;;;;;3.43;3.13;;;9.60;99.90;;;;;;5063140;28;20174;-59
2023/10/26 06:21:59;;;;;;;4.73;2.70;;;9.60;99.90;;;;;;5065451;28;20175;-59
2023/10/26 06:24:26;;;;;;;3.10;2.80;;;9.60;99.90;;;;;;5065759;28;20431;-60
2023/10/26 06:26:52;;;;;;;4.10;3.50;;;9.60;99.90;;;;;;5056041;28;20262;-59
2023/10/26 06:29:17;;;;;;;6.23;4.93;;;9.60;99.90;;;;;;5061497;28;20859;-59
2023/10/26 06:31:44;;;;;;;11.13;6.10;;;9.60;99.90;;;;;;5053183;28;20269;-60
2023/10/26 06:34:10;;;;;;;10.00;6.50;;;9.60;99.90;;;;;;5063557;28;20206;-60
2023/10/26 06:36:36;;;;;;;10.60;6.77;;;9.60;99.90;;;;;;5066025;28;20518;-59
2023/10/26 06:39:02;;;;;;;10.30;6.83;;;9.60;99.90;;;;;;5067081;28;20421;-57
2023/10/26 06:41:28;;;;;;;11.83;6.47;;;9.60;99.90;;;;;;5062259;28;20194;-60
2023/10/26 06:43:53;;;;;;;12.13;6.73;;;9.60;99.90;;;;;;5066790;28;20830;-60
2023/10/26 06:46:19;;;;;;;9.60;7.00;;;9.60;99.90;;;;;;5064573;28;20248;-60
2023/10/26 06:48:45;;;;;;;9.10;6.50;;;9.60;99.90;;;;;;5064739;28;20274;-60
2023/10/26 06:51:10;;;;;;;8.90;6.63;;;9.60;99.90;;;;;;5063445;28;20630;-60
2023/10/26 06:53:36;;;;;;;11.80;6.37;;;9.60;99.90;;;;;;5064044;28;20549;-59
2023/10/26 06:56:02;;;;;;;12.57;7.10;;;9.60;99.90;;;;;;5063306;28;20652;-59
2023/10/26 06:58:28;;;;;;;10.77;6.97;;;9.60;99.90;;;;;;5064979;28;20676;-61
2023/10/26 07:00:54;;;;;;;7.80;5.77;;;9.60;99.90;;;;;;5063169;28;20205;-59
2023/10/26 07:03:20;;;;;;;8.60;6.17;;;9.50;99.90;;;;;;5057249;28;20182;-59
2023/10/26 07:05:47;;;;;;;9.23;6.93;;;9.50;99.90;;;;;;5062231;28;20323;-59
2023/10/26 07:08:13;;;;;;;7.83;6.20;;;9.50;99.90;;;;;;5058264;28;20424;-59
2023/10/26 07:10:40;;;;;;;7.37;6.00;;;9.50;99.90;;;;;;5063094;28;20466;-59
2023/10/26 07:13:07;;;;;;;9.40;6.70;;;9.50;99.90;;;;;;5059029;28;20174;-59
2023/10/26 07:15:34;;;;;;;10.63;7.20;;;9.50;99.90;;;;;;5066040;28;20907;-59
2023/10/26 07:17:59;;;;;;;9.10;6.80;;;9.50;99.90;;;;;;5063108;28;20463;-59
2023/10/26 07:20:25;;;;;;;11.30;7.57;;;9.60;99.90;;;;;;5057356;28;20456;-60
2023/10/26 07:22:52;;;;;;;9.13;6.50;;;9.60;99.90;;;;;;5057625;28;20185;-60
2023/10/26 07:25:18;;;;;;;7.40;5.93;;;9.60;99.90;;;;;;5064056;28;20273;-58
2023/10/26 07:27:43;;;;;;;10.80;6.53;;;9.70;99.90;;;;;;5060838;28;20456;-60
2023/10/26 07:30:11;;;;;;;8.23;6.90;;;9.70;99.90;;;;;;5061153;28;20281;-60
2023/10/26 07:32:36;;;;;;;7.80;6.40;;;9.70;99.90;;;;;;5063018;28;20182;-60
2023/10/26 07:35:02;;;;;;;9.90;6.83;;;9.60;99.90;;;;;;5059351;28;20463;-59
2023/10/26 07:37:29;;;;;;;7.60;6.00;;;9.70;99.90;;;;;;5065456;28;20163;-59
2023/10/26 07:39:55;;;;;;;7.77;6.10;;;9.60;99.90;;;;;;5059222;28;20203;-61
2023/10/26 07:42:20;;;;;;;13.40;6.70;;;9.70;99.90;;;;;;5063145;28;20435;-59
2023/10/26 07:44:46;;;;;;;10.23;6.93;;;9.70;99.90;;;;;;5062339;28;20188;-59
2023/10/26 07:47:12;;;;;;;7.50;6.40;;;9.70;99.90;;;;;;5065523;28;20167;-59
2023/10/26 07:49:38;;;;;;;7.10;5.53;;;9.80;99.90;;;;;;5061894;28;20220;-60
2023/10/26 07:52:04;;;;;;;7.73;5.90;;;9.80;99.90;;;;;;5057152;28;20425;-59
2023/10/26 07:54:29;;;;;;;6.77;5.20;;;9.80;99.90;;;;;;5063087;28;20182;-60
2023/10/26 07:56:55;;;;;;;9.87;5.80;;;9.90;99.90;;;;;;5064770;28;20170;-59
2023/10/26 07:59:21;;;;;;;6.83;5.60;;;9.90;99.90;;;;;;5069241;28;20170;-60
2023/10/26 08:01:47;;;;;;;8.10;6.20;;;9.90;99.90;;;;;;5064149;28;20244;-59
2023/10/26 08:04:13;;;;;;;6.50;5.07;;;9.90;99.90;;;;;;5063222;28;20182;-60
2023/10/26 08:06:38;;;;;;;5.63;4.73;;;9.90;99.90;;;;;;5065404;28;20420;-59
2023/10/26 08:09:05;;;;;;;4.63;4.23;;;9.90;99.90;;;;;;5065042;28;20205;-60
2023/10/26 08:11:30;;;;;;;5.10;4.07;;;10.00;99.90;;;;;;5057740;28;20739;-60
2023/10/26 08:13:56;;;;;;;13.60;6.73;;;10.00;99.90;;;;;;5063192;28;20404;-60
2023/10/26 08:16:22;;;;;;;5.40;4.50;;;10.00;99.90;;;;;;5065756;28;20194;-59
2023/10/26 08:18:47;;;;;;;3.87;3.47;;;10.00;99.90;;;;;;5067993;28;20201;-60
2023/10/26 08:21:13;;;;;;;5.03;3.77;;;10.00;99.90;;;;;;5067585;28;20243;-59
2023/10/26 08:23:38;;;;;;;6.20;3.60;;;10.00;99.90;;;;;;5069923;28;20240;-60
2023/10/26 08:26:08;;;;;;;4.00;3.60;;;10.10;99.90;;;;;;5058947;28;20763;-59
2023/10/26 08:28:37;;;;;;;6.43;3.93;;;10.10;99.90;;;;;;5059940;28;20171;-60
2023/10/26 08:31:04;;;;;;;5.33;4.10;;;10.10;99.90;;;;;;5059847;28;20460;-59
2023/10/26 08:33:30;;;;;;;5.17;3.87;;;10.20;99.90;;;;;;5068687;28;20424;-60
2023/10/26 08:35:56;;;;;;;6.40;4.60;;;10.20;99.90;;;;;;5058886;28;20426;-60
2023/10/26 08:38:23;;;;;;;8.60;5.60;;;10.30;99.90;;;;;;5064875;28;20910;-58
2023/10/26 08:40:53;;;;;;;9.50;6.43;;;10.40;99.90;;;;;;5068032;28;20927;-58
2023/10/26 08:43:19;;;;;;;5.90;3.80;;;10.50;99.90;;;;;;5066304;28;20499;-59
2023/10/26 08:45:46;;;;;;;1.70;1.50;;;10.50;99.90;;;;;;5058859;28;20441;-59
2023/10/26 08:48:17;;;;;;;1.63;1.50;;;10.60;99.90;;;;;;5068014;28;20428;-60
2023/10/26 08:50:43;;;;;;;1.90;1.20;;;10.70;99.90;;;;;;5062694;28;21898;-59
2023/10/26 08:53:09;;;;;;;3.07;1.17;;;10.70;99.90;;;;;;5064523;28;20432;-60
2023/10/26 08:55:38;;;;;;;1.30;1.20;;;10.80;99.90;;;;;;5057105;28;20429;-59
2023/10/26 08:58:04;;;;;;;1.50;1.40;;;10.80;99.90;;;;;;5065190;28;20447;-58
2023/10/26 09:00:30;;;;;;;1.60;1.50;;;10.90;99.90;;;;;;5060883;28;20978;-60
2023/10/26 09:02:56;;;;;;;2.07;1.63;;;10.90;99.90;;;;;;5061560;28;20175;-60
2023/10/26 09:05:22;;;;;;;3.13;2.03;;;11.00;99.90;;;;;;5062211;28;20436;-60
2023/10/26 09:07:48;;;;;;;1.87;1.70;;;11.10;99.90;;;;;;5056855;28;20183;-60
2023/10/26 09:10:31;;;;;;;4.67;2.40;;;11.10;99.90;;;;;;5061656;28;20464;-59
2023/10/26 09:13:00;;;;;;;1.30;1.20;;;11.20;99.90;;;;;;5056970;28;20489;-60
2023/10/26 09:15:26;;;;;;;1.40;1.30;;;11.20;99.90;;;;;;5064590;28;20425;-60
2023/10/26 09:17:55;;;;;;;2.70;1.37;;;11.30;99.90;;;;;;5062570;28;20460;-59
2023/10/26 09:20:23;;;;;;;2.43;2.00;;;11.30;99.90;;;;;;5063083;28;20237;-60
2023/10/26 09:22:49;;;;;;;2.03;1.73;;;11.30;99.90;;;;;;5059761;28;20963;-60
2023/10/26 09:25:15;;;;;;;3.00;1.60;;;11.30;99.90;;;;;;5065577;28;20455;-60
2023/10/26 09:27:42;;;;;;;1.77;1.40;;;11.30;99.90;;;;;;5064155;28;20190;-60
2023/10/26 09:30:32;;;;;;;1.37;1.27;;;11.40;99.90;;;;;;5057073;28;20469;-59
2023/10/26 09:32:58;;;;;;;2.90;1.20;;;11.40;99.90;;;;;;5059875;28;20965;-60
2023/10/26 09:35:29;;;;;;;1.60;1.50;;;11.40;99.90;;;;;;5066627;28;20906;-60
2023/10/26 09:37:55;;;;;;;1.33;1.23;;;11.40;99.90;;;;;;5061627;28;20421;-59
2023/10/26 09:40:26;;;;;;;2.60;1.40;;;11.40;99.90;;;;;;5059768;28;20469;-59
2023/10/26 09:42:52;;;;;;;2.57;1.13;;;11.40;99.90;;;;;;5062915;28;20527;-59
2023/10/26 09:45:19;;;;;;;1.27;1.17;;;11.40;99.90;;;;;;5066478;28;20950;-59
2023/10/26 09:47:45;;;;;;;3.00;1.43;;;11.40;99.90;;;;;;5061428;28;20443;-59
2023/10/26 09:50:11;;;;;;;1.57;1.43;;;11.50;99.90;;;;;;5061951;28;21100;-59
2023/10/26 09:52:38;;;;;;;1.93;1.60;;;11.50;99.90;;;;;;5061688;28;20414;-60
2023/10/26 09:55:07;;;;;;;4.37;1.70;;;11.50;99.90;;;;;;5068665;28;20423;-59
2023/10/26 09:57:36;;;;;;;1.70;1.60;;;11.60;99.90;;;;;;5060737;28;20432;-60
2023/10/26 10:00:07;;;;;;;2.37;1.87;;;11.60;99.90;;;;;;5066741;28;20437;-58
2023/10/26 10:02:33;;;;;;;1.80;1.70;;;11.60;99.90;;;;;;5058901;28;20439;-59
2023/10/26 10:04:58;;;;;;;1.87;1.70;;;11.70;99.90;;;;;;5059550;28;20460;-59
2023/10/26 10:07:44;;;;;;;3.60;1.93;;;11.60;99.90;;;;;;5065238;28;20178;-59
2023/10/26 10:10:11;;;;;;;1.93;1.80;;;11.60;99.90;;;;;;5061316;28;20233;-59
2023/10/26 10:12:38;;;;;;;9.50;1.90;;;11.70;99.90;;;;;;5061519;28;20444;-59
2023/10/26 10:15:09;;;;;;;5.07;1.90;;;11.60;99.90;;;;;;5062514;28;21109;-60
2023/10/26 10:17:58;;;;;;;1.70;1.60;;;11.60;99.90;;;;;;5059948;28;20465;-61
2023/10/26 10:20:28;;;;;;;5.07;2.07;;;11.70;99.90;;;;;;5051300;28;20467;-61
2023/10/26 10:22:56;;;;;;;2.10;1.70;;;11.70;99.90;;;;;;5057041;28;21436;-58
2023/10/26 10:25:23;;;;;;;3.83;1.80;;;11.70;99.90;;;;;;5060195;28;20435;-60
2023/10/26 10:27:48;;;;;;;3.63;2.10;;;11.80;99.90;;;;;;5061067;28;20437;-60
2023/10/26 10:30:18;;;;;;;5.20;2.73;;;11.90;99.90;;;;;;5059044;28;20464;-60
2023/10/26 10:32:46;;;;;;;3.60;2.03;;;11.90;99.90;;;;;;5061110;28;20190;-60
2023/10/26 10:35:41;;;;;;;3.67;1.93;;;11.90;99.90;;;;;;5059049;28;20434;-59
2023/10/26 10:38:21;;;;;;;2.77;2.33;;;12.00;99.90;;;;;;5029842;28;20429;-59
2023/10/26 10:40:59;;;;;;;4.80;2.27;;;12.10;99.90;;;;;;5064532;28;20806;-59
2023/10/26 10:43:34;;;;;;;2.07;1.97;;;12.10;99.90;;;;;;5053396;28;20431;-60
2023/10/26 10:46:12;;;;;;;2.00;1.80;;;12.20;99.90;;;;;;5059951;28;20463;-60
2023/10/26 10:49:00;;;;;;;3.93;2.47;;;12.20;99.90;;;;;;5057906;28;20523;-59
2023/10/26 10:51:35;;;;;;;6.63;3.30;;;12.30;99.90;;;;;;5053954;28;20499;-60
2023/10/26 10:54:04;;;;;;;7.60;2.80;;;12.40;99.90;;;;;;5060611;28;20429;-60
2023/10/26 10:56:37;;;;;;;4.60;2.30;;;12.50;99.90;;;;;;5062155;28;20412;-58
2023/10/26 10:59:35;;;;;;;3.83;2.47;;;12.60;99.90;;;;;;5063689;28;20414;-58
2023/10/26 11:02:14;;;;;;;9.10;3.80;;;12.80;99.90;;;;;;5059974;28;20873;-59
2023/10/26 11:04:59;;;;;;;7.07;3.43;;;12.90;99.90;;;;;;5061484;28;20431;-62
2023/10/26 11:07:26;;;;;;;9.03;2.50;;;13.10;99.90;;;;;;5059599;28;20817;-61
2023/10/26 11:09:56;;;;;;;2.83;2.33;;;13.40;99.90;;;;;;5064846;28;20459;-60
2023/10/26 11:12:22;;;;;;;7.33;2.30;;;13.50;99.90;;;;;;5056988;28;20956;-59
2023/10/26 11:14:49;;;;;;;8.90;2.57;;;13.60;99.90;;;;;;5059159;28;20455;-61
2023/10/26 11:17:20;;;;;;;12.37;2.37;;;13.70;99.90;;;;;;5063759;28;20226;-62
2023/10/26 11:19:47;;;;;;;9.57;2.63;;;13.90;99.90;;;;;;5058857;28;21050;-60
2023/10/26 11:22:15;;;;;;;10.50;2.40;;;14.00;99.90;;;;;;5059376;28;20424;-61
2023/10/26 11:24:41;;;;;;;10.90;2.70;;;14.10;99.90;;;;;;5063090;28;20433;-60
2023/10/26 11:27:09;;;;;;;10.40;2.30;;;14.10;99.90;;;;;;5063275;28;20440;-60
2023/10/26 11:29:35;;;;;;;15.73;2.43;;;14.10;99.90;;;;;;5059503;28;20889;-60
2023/10/26 11:32:01;;;;;;;9.87;3.53;;;14.00;99.90;;;;;;5058853;28;20951;-59
2023/10/26 11:34:27;;;;;;;7.33;2.63;;;14.00;99.90;;;;;;5064589;28;20452;-61
2023/10/26 11:36:54;;;;;;;12.73;2.60;;;14.00;99.90;;;;;;5056025;28;20846;-61
2023/10/26 11:39:19;;;;;;;8.70;2.07;;;14.00;99.90;;;;;;5067964;28;20439;-60
2023/10/26 11:41:53;;;;;;;11.97;2.13;;;14.00;99.90;;;;;;5065850;28;20487;-59
2023/10/26 11:44:26;;;;;;;8.23;2.97;;;14.00;99.90;;;;;;5066181;28;20183;-61
2023/10/26 11:46:59;;;;;;;14.20;2.83;;;14.00;99.90;;;;;;5067862;28;20477;-59
2023/10/26 11:49:38;;;;;;;9.70;2.30;;;14.00;99.90;;;;;;5066804;28;20447;-60
2023/10/26 11:52:04;;;;;;;13.43;3.27;;;14.00;99.90;;;;;;5070646;28;20435;-60
2023/10/26 11:54:30;;;;;;;17.70;2.67;;;14.00;99.90;;;;;;5062241;28;20574;-60
2023/10/26 11:56:55;;;;;;;17.30;2.97;;;14.20;99.90;;;;;;5075032;28;20962;-60
2023/10/26 11:59:21;;;;;;;10.67;2.70;;;14.40;99.90;;;;;;5071546;28;20789;-61
2023/10/26 12:01:47;;;;;;;11.20;2.30;;;14.80;99.90;;;;;;5064087;28;20225;-60
2023/10/26 12:04:13;;;;;;;10.87;2.57;;;15.30;99.90;;;;;;5070086;28;20179;-61
2023/10/26 12:06:38;;;;;;;11.77;2.30;;;15.80;99.90;;;;;;5068467;28;20268;-60
2023/10/26 12:09:06;;;;;;;8.40;2.03;;;16.40;99.90;;;;;;5069464;28;20840;-60
2023/10/26 12:11:32;;;;;;;6.63;1.90;;;16.90;99.90;;;;;;5057477;28;20213;-59
2023/10/26 12:13:57;;;;;;;7.23;2.10;;;17.50;99.90;;;;;;5067317;28;20443;-61
2023/10/26 12:16:23;;;;;;;9.47;2.80;;;18.10;99.90;;;;;;5069459;28;20417;-60
2023/10/26 12:18:49;;;;;;;9.03;1.90;;;18.70;93.30;;;;;;5067378;28;20654;-60
2023/10/26 12:21:15;;;;;;;13.87;2.40;;;19.30;79.30;;;;;;5068403;28;20755;-60
2023/10/26 12:23:41;;;;;;;6.40;2.00;;;19.70;70.40;;;;;;5043162;28;20629;-60
2023/10/26 12:26:06;;;;;;;6.63;2.00;;;19.90;67.10;;;;;;5068145;28;20432;-60
2023/10/26 12:28:32;;;;;;;5.60;2.17;;;20.00;64.40;;;;;;5066714;28;20548;-61
2023/10/26 12:30:58;;;;;;;6.03;1.53;;;20.10;62.80;;;;;;5064634;28;20699;-60
2023/10/26 12:33:23;;;;;;;11.30;2.57;;;19.80;62.50;;;;;;5069360;28;20185;-60
2023/10/26 12:35:50;;;;;;;7.40;2.10;;;19.20;65.50;;;;;;5061061;28;20167;-59
2023/10/26 12:38:19;;;;;;;6.30;2.40;;;18.50;73.20;;;;;;5066248;28;20193;-56
2023/10/26 12:40:48;;;;;;;8.60;1.90;;;17.90;73.70;;;;;;5065014;28;20456;-56
2023/10/26 12:43:14;;;;;;;7.57;2.13;;;17.20;78.60;;;;;;5066478;28;20451;-56
2023/10/26 12:45:40;;;;;;;11.00;2.60;;;16.80;89.20;;;;;;5064872;28;21233;-56
2023/10/26 12:48:05;;;;;;;9.50;2.07;;;16.40;94.50;;;;;;5063784;28;20451;-56
2023/10/26 12:50:31;;;;;;;4.90;1.87;;;16.10;97.60;;;;;;5068686;28;20199;-56
2023/10/26 12:52:57;;;;;;;3.90;1.77;;;15.90;98.70;;;;;;5071111;28;20198;-57